Terminal Aerodrome Forecast
Issued by NWS

Home | Current Version | Previous Version | Text Only | Print | Product List | Glossary Off
Versions: 1 2 3 4 5 6 7 8 9 10 11 12 13 14

400
FTUS43 KMPX 180520
TAFAXN
TAF
KAXN 180520Z 1806/1906 07008KT P6SM BKN120
     FM181000 07007KT P6SM OVC040
     FM181400 03011KT P6SM OVC030
     FM182200 36006KT P6SM SCT250=

USA.gov is the U.S. government's official web portal to all federal, state and local government web resources and services.